EGGDLGIR

Guest
Details From EGGD - Bristol International
To LGIR - Iraklion - Nizos Kazantzakis
Flight Number -
Tags decoded
Created
Modified
Stats Distance 1,552 nm / 2,874 km
Max Altitude 0 ft / 0 m
Waypoints 3
Social Downloads 0
Likes 0
Share VATSIM

Download

Looking for another format? Having issues loading an existing format? Contact us
Advertisement - Login to hide

Notes

Requested: EGGD WOTAN LGIR

Route

EGGD WOTAN LGIR

ID Type Via Altitude Latitude Longitude Leg Dist Tot Dist Heading (true) Name
O EGGD APT - 0 ft / 0 m 51.38266˚ -2.71892˚ - 0 nm - Bristol International
WOTAN FIX - 0 ft / 0 m 51.62389˚ -2.33500˚ 20 nm 20 nm 45° / 45° -
O LGIR APT - 0 ft / 0 m 35.33949˚ 25.18012˚ 1531 nm 1551 nm 119° / 138° Iraklion - Nizos Kazantzakis

Altitude Profile

Advertisement - Login to hide

Weather


0- 5 10 15 20 25 30 35+ Temperature / ° C

Clouds and Precipitation
Forecast for 2018-05-27 00:00 UTC. Updated 2 hours ago

Ground ~20,000 ft ~40,000 ft Winds

EGGD

Details ICAO EGGD (BRS)
Name Bristol International
Region United Kingdom
Timezone Europe/London (UTC+1.0)
Stats Elevation 622 ft / 190 m (AMSL)
Location 51.382658° -2.718918°
Runways 1
Magnetic Variation 1.283° W

METAR

EGGD 270120Z AUTO 06012KT 9999 NCD 14/14 Q1014

Decode

TAF

TAF EGGD 262300Z 2700/2724 04013KT 9999 SCT020 TEMPO 2700/2707 03016G26KT 4000 +SHRA TSRA BKN009 BKN045CB PROB40 TEMPO 2700/2702 1200 +TSGR BKN004 BECMG 2703/2705 6000 PROB40 TEMPO 2703/2709 3000 BR SCT001 BKN002 TEMPO 2707/2719 5000 TSRA BKN014 BKN045CB PROB40 TEMPO 2707/2719 VRB15G25KT 2000 +SHRA TSGR BKN009 BECMG 2709/2712 9999 BECMG 2715/2718 12008KT

Decode

Departure Runways

ID Width Length Bearing (true) Bearing (mag) Surface Threshold Offset Overrun Length
09 148 ft / 45 m 6,655 ft / 2,029 m 86.42° 87.70° Asphalt 0 ft / 0 m 0 ft / 0 m
27 148 ft / 45 m 6,655 ft / 2,029 m 266.44° 267.72° Asphalt 499 ft / 152 m 0 ft / 0 m

LGIR

Details ICAO LGIR (HER)
Name Iraklion - Nizos Kazantzakis
Region Greece
Timezone Europe/Athens (UTC+3.0)
Stats Elevation 115 ft / 35 m (AMSL)
Location 35.339487° 25.180120°
Runways 3
Magnetic Variation 4.422° E

METAR

LGIR 270120Z 29015KT 9999 FEW018 BKN040 22/20 Q1011 NOSIG

Decode

TAF

TAF LGIR 262300Z 2700/2724 30015KT 9999 FEW018 SCT040 PROB30 TEMPO 2700/2724 5000 RA SCT015 BKN030 PROB30 TEMPO 2706/2715 4000 TSRA FEW018CB BKN025

Decode

Destination Runways

ID Width Length Bearing (true) Bearing (mag) Surface Threshold Offset Overrun Length
09 148 ft / 45 m 8,755 ft / 2,669 m 94.84° 90.42° Asphalt 1,565 ft / 477 m 200 ft / 61 m
12 164 ft / 50 m 5,136 ft / 1,566 m 126.27° 121.85° Asphalt 499 ft / 152 m 190 ft / 58 m
18 131 ft / 40 m 2,607 ft / 795 m 180.40° 175.98° Asphalt 0 ft / 0 m 0 ft / 0 m
27 148 ft / 45 m 8,755 ft / 2,669 m 274.86° 270.44° Asphalt 0 ft / 0 m 210 ft / 64 m
30 164 ft / 50 m 5,136 ft / 1,566 m 306.28° 301.86° Asphalt 0 ft / 0 m 0 ft / 0 m
36 131 ft / 40 m 2,607 ft / 795 m 0.40° 355.98° Asphalt 328 ft / 100 m 0 ft / 0 m

Popular Alternatives